sensor_id;sensor_type;location;lat;lon;timestamp;temperature;humidity
52439;DHT22;38359;53.150;6.504;2022-12-18T00:01:38;-2.90;99.90
52439;DHT22;38359;53.150;6.504;2022-12-18T00:12:04;-2.50;99.90
52439;DHT22;38359;53.150;6.504;2022-12-18T00:22:30;-2.70;99.90
52439;DHT22;38359;53.150;6.504;2022-12-18T00:32:57;-2.60;99.90
52439;DHT22;38359;53.150;6.504;2022-12-18T00:43:23;-2.90;99.90
52439;DHT22;38359;53.150;6.504;2022-12-18T00:53:48;-2.90;99.90
52439;DHT22;38359;53.150;6.504;2022-12-18T01:04:14;-2.90;99.90
52439;DHT22;38359;53.150;6.504;2022-12-18T01:14:40;-3.10;99.90
52439;DHT22;38359;53.150;6.504;2022-12-18T01:25:09;-3.10;99.90
52439;DHT22;38359;53.150;6.504;2022-12-18T01:35:42;-3.20;99.90
52439;DHT22;38359;53.150;6.504;2022-12-18T01:46:08;-3.20;99.90
52439;DHT22;38359;53.150;6.504;2022-12-18T01:56:34;-3.40;99.90
52439;DHT22;38359;53.150;6.504;2022-12-18T02:17:52;-3.70;99.90
52439;DHT22;38359;53.150;6.504;2022-12-18T02:28:23;-3.70;99.90
52439;DHT22;38359;53.150;6.504;2022-12-18T02:38:54;-3.80;99.90
52439;DHT22;38359;53.150;6.504;2022-12-18T02:49:42;-3.80;99.90
52439;DHT22;38359;53.150;6.504;2022-12-18T03:10:45;-3.90;99.90
52439;DHT22;38359;53.150;6.504;2022-12-18T03:21:43;-4.00;99.90
52439;DHT22;38359;53.150;6.504;2022-12-18T03:32:19;-4.10;99.90
52439;DHT22;38359;53.150;6.504;2022-12-18T03:42:52;-4.00;99.90
52439;DHT22;38359;53.150;6.504;2022-12-18T03:53:41;-4.10;99.90
52439;DHT22;38359;53.150;6.504;2022-12-18T04:04:15;-4.10;99.90
52439;DHT22;38359;53.150;6.504;2022-12-18T04:14:41;-4.30;99.90
52439;DHT22;38359;53.150;6.504;2022-12-18T04:25:07;-4.20;99.90
52439;DHT22;38359;53.150;6.504;2022-12-18T04:35:33;-4.30;99.90
52439;DHT22;38359;53.150;6.504;2022-12-18T04:46:04;-4.50;99.90
52439;DHT22;38359;53.150;6.504;2022-12-18T04:56:31;-4.40;99.90
52439;DHT22;38359;53.150;6.504;2022-12-18T05:06:57;-4.50;99.90
52439;DHT22;38359;53.150;6.504;2022-12-18T05:17:23;-4.50;99.90
52439;DHT22;38359;53.150;6.504;2022-12-18T05:27:49;-4.60;99.90
52439;DHT22;38359;53.150;6.504;2022-12-18T05:38:15;-4.60;99.90
52439;DHT22;38359;53.150;6.504;2022-12-18T05:48:42;-4.70;99.90
52439;DHT22;38359;53.150;6.504;2022-12-18T05:59:08;-4.70;99.90
52439;DHT22;38359;53.150;6.504;2022-12-18T06:09:34;-4.70;99.90
52439;DHT22;38359;53.150;6.504;2022-12-18T06:20:00;-4.80;99.90
52439;DHT22;38359;53.150;6.504;2022-12-18T06:30:27;-4.90;99.90
52439;DHT22;38359;53.150;6.504;2022-12-18T06:40:53;-4.90;99.90
52439;DHT22;38359;53.150;6.504;2022-12-18T06:51:20;-5.00;99.90
52439;DHT22;38359;53.150;6.504;2022-12-18T07:01:47;-5.10;99.90
52439;DHT22;38359;53.150;6.504;2022-12-18T07:12:13;-5.00;99.90
52439;DHT22;38359;53.150;6.504;2022-12-18T07:22:38;-4.90;99.90
52439;DHT22;38359;53.150;6.504;2022-12-18T07:33:04;-5.00;99.90
52439;DHT22;38359;53.150;6.504;2022-12-18T07:43:30;-5.10;99.90
52439;DHT22;38359;53.150;6.504;2022-12-18T07:53:56;-5.20;99.90
52439;DHT22;38359;53.150;6.504;2022-12-18T08:04:22;-5.10;99.90
52439;DHT22;38359;53.150;6.504;2022-12-18T08:14:48;-4.90;99.90
52439;DHT22;38359;53.150;6.504;2022-12-18T08:25:14;-4.70;99.90
52439;DHT22;38359;53.150;6.504;2022-12-18T08:35:40;-4.70;99.90
52439;DHT22;38359;53.150;6.504;2022-12-18T08:46:06;-4.70;99.90
52439;DHT22;38359;53.150;6.504;2022-12-18T08:56:32;-4.50;99.90
52439;DHT22;38359;53.150;6.504;2022-12-18T09:06:58;-4.40;99.90
52439;DHT22;38359;53.150;6.504;2022-12-18T09:17:24;-4.30;99.90
52439;DHT22;38359;53.150;6.504;2022-12-18T09:27:50;-4.10;99.90
52439;DHT22;38359;53.150;6.504;2022-12-18T09:38:17;-3.90;99.90
52439;DHT22;38359;53.150;6.504;2022-12-18T09:48:47;-3.60;99.90
52439;DHT22;38359;53.150;6.504;2022-12-18T09:59:29;-3.20;99.90
52439;DHT22;38359;53.150;6.504;2022-12-18T10:21:36;-2.90;99.90
52439;DHT22;38359;53.150;6.504;2022-12-18T10:32:03;-3.10;99.90
52439;DHT22;38359;53.150;6.504;2022-12-18T10:42:29;-2.60;99.90
52439;DHT22;38359;53.150;6.504;2022-12-18T10:53:03;-2.70;99.90
52439;DHT22;38359;53.150;6.504;2022-12-18T11:03:42;-2.50;99.90
52439;DHT22;38359;53.150;6.504;2022-12-18T11:14:20;-2.50;99.90
52439;DHT22;38359;53.150;6.504;2022-12-18T11:24:58;-2.20;99.90
52439;DHT22;38359;53.150;6.504;2022-12-18T11:35:47;-2.30;99.90
52439;DHT22;38359;53.150;6.504;2022-12-18T11:46:26;-2.10;99.90
52439;DHT22;38359;53.150;6.504;2022-12-18T12:08:04;-1.80;99.90
52439;DHT22;38359;53.150;6.504;2022-12-18T12:29:28;-1.30;99.90
52439;DHT22;38359;53.150;6.504;2022-12-18T12:40:02;-1.30;99.90
52439;DHT22;38359;53.150;6.504;2022-12-18T12:50:33;-1.00;99.90
52439;DHT22;38359;53.150;6.504;2022-12-18T13:01:08;-1.20;99.90
52439;DHT22;38359;53.150;6.504;2022-12-18T13:11:45;-0.70;99.90
52439;DHT22;38359;53.150;6.504;2022-12-18T13:22:37;-0.60;99.90
52439;DHT22;38359;53.150;6.504;2022-12-18T13:43:43;-0.50;99.90
52439;DHT22;38359;53.150;6.504;2022-12-18T13:54:36;-0.60;99.90
52439;DHT22;38359;53.150;6.504;2022-12-18T14:05:03;-0.40;99.90
52439;DHT22;38359;53.150;6.504;2022-12-18T14:15:41;-0.60;99.90
52439;DHT22;38359;53.150;6.504;2022-12-18T14:26:29;-0.60;99.90
52439;DHT22;38359;53.150;6.504;2022-12-18T14:36:56;0.40;99.90
52439;DHT22;38359;53.150;6.504;2022-12-18T14:47:21;-0.50;99.90
52439;DHT22;38359;53.150;6.504;2022-12-18T14:57:51;-0.80;99.90
52439;DHT22;38359;53.150;6.504;2022-12-18T15:08:34;-0.80;99.90
52439;DHT22;38359;53.150;6.504;2022-12-18T15:19:01;-0.90;99.90
52439;DHT22;38359;53.150;6.504;2022-12-18T15:29:27;-0.80;99.90
52439;DHT22;38359;53.150;6.504;2022-12-18T15:39:53;-1.10;99.90
52439;DHT22;38359;53.150;6.504;2022-12-18T15:50:18;-1.10;99.90
52439;DHT22;38359;53.150;6.504;2022-12-18T16:00:44;-1.10;99.90
52439;DHT22;38359;53.150;6.504;2022-12-18T16:11:26;-1.00;99.90
52439;DHT22;38359;53.150;6.504;2022-12-18T16:22:08;-1.00;99.90
52439;DHT22;38359;53.150;6.504;2022-12-18T16:32:43;-0.90;99.90
52439;DHT22;38359;53.150;6.504;2022-12-18T16:43:09;-1.00;99.90
52439;DHT22;38359;53.150;6.504;2022-12-18T16:53:35;-0.90;99.90
52439;DHT22;38359;53.150;6.504;2022-12-18T17:04:05;-0.80;99.90
52439;DHT22;38359;53.150;6.504;2022-12-18T17:14:32;-0.80;99.90
52439;DHT22;38359;53.150;6.504;2022-12-18T17:24:58;-0.80;99.90
52439;DHT22;38359;53.150;6.504;2022-12-18T17:35:24;-0.70;99.90
52439;DHT22;38359;53.150;6.504;2022-12-18T17:45:49;-0.60;99.90
52439;DHT22;38359;53.150;6.504;2022-12-18T17:56:17;-0.70;99.90
52439;DHT22;38359;53.150;6.504;2022-12-18T18:06:44;-0.50;99.90
52439;DHT22;38359;53.150;6.504;2022-12-18T18:17:10;-0.70;99.90
52439;DHT22;38359;53.150;6.504;2022-12-18T18:27:35;-0.30;99.90
52439;DHT22;38359;53.150;6.504;2022-12-18T18:38:01;-0.50;99.90
52439;DHT22;38359;53.150;6.504;2022-12-18T18:48:31;-0.30;99.90
52439;DHT22;38359;53.150;6.504;2022-12-18T18:59:00;-0.30;99.90
52439;DHT22;38359;53.150;6.504;2022-12-18T19:09:25;-0.30;99.90
52439;DHT22;38359;53.150;6.504;2022-12-18T19:19:52;-0.10;99.90
52439;DHT22;38359;53.150;6.504;2022-12-18T19:30:17;-0.20;99.90
52439;DHT22;38359;53.150;6.504;2022-12-18T19:40:44;0.10;99.90
52439;DHT22;38359;53.150;6.504;2022-12-18T19:51:16;0.10;99.90
52439;DHT22;38359;53.150;6.504;2022-12-18T20:01:44;0.10;99.90
52439;DHT22;38359;53.150;6.504;2022-12-18T20:12:09;0.30;99.90
52439;DHT22;38359;53.150;6.504;2022-12-18T20:22:35;0.30;99.90
52439;DHT22;38359;53.150;6.504;2022-12-18T20:33:01;0.20;99.90
52439;DHT22;38359;53.150;6.504;2022-12-18T20:43:30;0.30;99.90
52439;DHT22;38359;53.150;6.504;2022-12-18T20:53:56;0.50;99.90
52439;DHT22;38359;53.150;6.504;2022-12-18T21:04:24;0.40;99.90
52439;DHT22;38359;53.150;6.504;2022-12-18T21:14:49;0.60;99.90
52439;DHT22;38359;53.150;6.504;2022-12-18T21:25:15;0.50;99.90
52439;DHT22;38359;53.150;6.504;2022-12-18T21:35:41;0.80;99.90
52439;DHT22;38359;53.150;6.504;2022-12-18T21:46:07;0.80;99.90
52439;DHT22;38359;53.150;6.504;2022-12-18T22:07:13;0.80;99.90
52439;DHT22;38359;53.150;6.504;2022-12-18T22:17:39;0.80;99.90
52439;DHT22;38359;53.150;6.504;2022-12-18T22:28:05;0.80;99.90
52439;DHT22;38359;53.150;6.504;2022-12-18T22:38:50;0.80;99.90
52439;DHT22;38359;53.150;6.504;2022-12-18T22:49:17;0.90;99.90
52439;DHT22;38359;53.150;6.504;2022-12-18T22:59:44;0.70;99.90
52439;DHT22;38359;53.150;6.504;2022-12-18T23:10:10;1.00;99.90
52439;DHT22;38359;53.150;6.504;2022-12-18T23:20:36;0.70;99.90
52439;DHT22;38359;53.150;6.504;2022-12-18T23:41:45;0.70;99.90
52439;DHT22;38359;53.150;6.504;2022-12-18T23:52:11;1.00;99.90
